Time;durP1;ratioP1;P1;durP2;ratioP2;P2;SDS_P1;SDS_P2;PMS_P1;PMS_P2;Temp;Humidity;BMP_temperature;BMP_pressure;BME280_temperature;BME280_humidity;BME280_pressure;Samples;Min_cycle;Max_cycle;Signal;HPM_P1;HPM_P2
2021/06/28 00:00:13;;;;;;;12.43;11.23;;;20.80;1.00;21.70;100366.00;;;;5050400;28;20455;-76
2021/06/28 00:02:41;;;;;;;10.90;10.00;;;20.80;1.00;21.60;100357.00;;;;5032934;28;20447;-79
2021/06/28 00:05:16;;;;;;;10.63;9.83;;;20.80;1.00;21.60;100357.00;;;;5050358;28;20448;-79
2021/06/28 00:07:46;;;;;;;11.53;10.43;;;20.80;1.00;21.60;100355.00;;;;5048193;28;20443;-79
2021/06/28 00:10:17;;;;;;;12.77;11.67;;;20.70;1.00;21.50;100330.00;;;;5038617;28;20466;-76
2021/06/28 00:12:47;;;;;;;12.43;11.10;;;20.60;1.00;21.50;100338.00;;;;5053027;28;21012;-75
2021/06/28 00:15:18;;;;;;;12.43;11.23;;;20.60;1.00;21.40;100289.00;;;;5035839;28;20494;-76
2021/06/28 00:17:48;;;;;;;12.57;11.30;;;20.50;1.10;21.40;100361.00;;;;5033026;28;20444;-76
2021/06/28 00:20:19;;;;;;;11.83;10.83;;;20.50;1.40;21.40;100368.00;;;;5031619;28;20448;-83
2021/06/28 00:22:49;;;;;;;13.07;11.87;;;20.60;1.80;21.30;100359.00;;;;5052803;28;20570;-80
2021/06/28 00:25:20;;;;;;;12.70;11.50;;;20.50;1.90;21.30;100364.00;;;;5049941;28;20818;-78
2021/06/28 00:27:50;;;;;;;12.50;11.30;;;20.40;2.20;21.30;100351.00;;;;5046356;28;20457;-77
2021/06/28 00:30:31;;;;;;;12.03;10.70;;;20.40;2.20;21.30;100345.00;;;;5049306;28;20479;-80
2021/06/28 00:32:59;;;;;;;12.53;11.33;;;20.40;2.60;21.20;100337.00;;;;5050538;28;20847;-82
2021/06/28 00:35:29;;;;;;;13.40;12.13;;;20.30;3.00;21.20;100333.00;;;;5052515;28;21436;-78
2021/06/28 00:37:58;;;;;;;14.70;12.53;;;20.30;3.30;21.10;100358.00;;;;5051751;28;20516;-77
2021/06/28 00:40:28;;;;;;;12.63;11.40;;;20.10;3.50;21.00;100326.00;;;;5047945;28;21038;-76
2021/06/28 00:42:57;;;;;;;13.23;12.00;;;20.10;3.70;21.00;100345.00;;;;5053396;28;20958;-78
2021/06/28 00:45:27;;;;;;;14.13;12.83;;;20.00;3.80;21.00;100324.00;;;;5038801;28;20467;-77
2021/06/28 00:48:00;;;;;;;13.10;11.73;;;19.90;4.40;20.90;100337.00;;;;5054242;28;20551;-77
2021/06/28 00:50:31;;;;;;;12.33;11.13;;;19.90;4.80;20.90;100342.00;;;;5027648;28;20460;-84
2021/06/28 00:53:04;;;;;;;14.97;13.57;;;19.90;5.10;20.80;100345.00;;;;5026920;28;20476;-80
2021/06/28 00:55:33;;;;;;;15.60;13.50;;;19.90;5.70;20.80;100358.00;;;;5044781;28;20539;-77
2021/06/28 00:58:03;;;;;;;15.50;14.00;;;19.80;6.10;20.70;100331.00;;;;5046407;28;20503;-80
2021/06/28 01:00:32;;;;;;;17.33;14.10;;;19.80;6.50;20.70;100306.00;;;;5030729;28;20449;-79
2021/06/28 01:03:00;;;;;;;16.00;13.17;;;19.80;6.30;20.70;100344.00;;;;5037380;28;20464;-80
2021/06/28 01:05:33;;;;;;;14.40;12.90;;;19.80;6.10;20.70;100361.00;;;;5027617;28;20474;-80
2021/06/28 01:08:04;;;;;;;14.30;12.97;;;19.80;6.10;20.70;100348.00;;;;5047076;28;20464;-80
2021/06/28 01:10:34;;;;;;;17.23;15.57;;;19.90;6.00;20.70;100344.00;;;;5028476;28;20456;-79
2021/06/28 01:13:02;;;;;;;15.93;14.33;;;19.70;6.00;20.60;100331.00;;;;5046684;28;20522;-80
2021/06/28 01:15:31;;;;;;;17.87;16.10;;;19.70;6.20;20.60;100335.00;;;;5047340;28;20518;-79
2021/06/28 01:18:01;;;;;;;16.13;14.53;;;19.60;6.70;20.60;100339.00;;;;5030322;28;20459;-80
2021/06/28 01:20:33;;;;;;;16.27;14.70;;;19.60;6.80;20.50;100348.00;;;;5047899;28;20454;-80
2021/06/28 01:23:17;;;;;;;15.53;14.20;;;19.50;7.20;20.50;100318.00;;;;5036007;28;20460;-78
2021/06/28 01:25:47;;;;;;;15.73;13.37;;;19.50;7.70;20.40;100342.00;;;;5032283;28;20484;-79
2021/06/28 01:28:16;;;;;;;15.67;14.33;;;19.40;7.90;20.40;100299.00;;;;5048762;28;20440;-79
2021/06/28 01:30:45;;;;;;;16.97;15.50;;;19.40;8.20;20.40;100340.00;;;;5049584;28;20499;-78
2021/06/28 01:33:14;;;;;;;15.77;14.37;;;19.30;8.50;20.30;100351.00;;;;5031160;28;20892;-78
2021/06/28 01:35:47;;;;;;;16.83;15.33;;;19.30;8.80;20.30;100319.00;;;;5050532;28;20479;-78
2021/06/28 01:38:17;;;;;;;15.83;14.53;;;19.30;8.60;20.40;100347.00;;;;5035784;28;20459;-78
2021/06/28 01:40:46;;;;;;;16.57;15.17;;;19.40;8.40;20.40;100347.00;;;;5038007;28;20459;-79
2021/06/28 01:43:15;;;;;;;16.10;14.60;;;19.40;7.80;20.40;100346.00;;;;5048733;28;20463;-78
2021/06/28 01:45:44;;;;;;;16.70;15.10;;;19.40;8.40;20.40;100314.00;;;;5030666;28;20542;-79
2021/06/28 01:48:13;;;;;;;17.13;15.53;;;19.40;7.80;20.40;100321.00;;;;5029963;28;20547;-79
2021/06/28 01:50:43;;;;;;;16.97;15.37;;;19.40;8.00;20.40;100346.00;;;;5042932;28;20543;-78
2021/06/28 01:53:12;;;;;;;15.33;14.03;;;19.40;8.20;20.40;100349.00;;;;5046815;28;20503;-78
2021/06/28 01:55:42;;;;;;;14.80;13.60;;;19.40;8.20;20.40;100308.00;;;;5044785;28;20550;-79
2021/06/28 01:58:14;;;;;;;14.27;13.07;;;19.40;8.10;20.40;100355.00;;;;5037022;28;20448;-79
2021/06/28 02:00:47;;;;;;;15.50;13.90;;;19.50;8.20;20.40;100334.00;;;;5048594;28;20545;-79
2021/06/28 02:03:18;;;;;;;15.17;13.77;;;19.40;8.20;20.40;100359.00;;;;5048701;28;20918;-79
2021/06/28 02:05:49;;;;;;;14.73;13.40;;;19.40;8.00;20.40;100359.00;;;;5046474;28;20523;-80
2021/06/28 02:08:21;;;;;;;15.23;13.80;;;19.40;7.80;20.40;100360.00;;;;5049452;28;20467;-80
2021/06/28 02:10:55;;;;;;;17.13;15.57;;;19.40;7.90;20.30;100356.00;;;;5046423;28;20456;-79
2021/06/28 02:13:26;;;;;;;15.50;14.20;;;19.40;8.40;20.40;100352.00;;;;5061415;28;20499;-79
2021/06/28 02:15:56;;;;;;;15.33;14.03;;;19.50;7.70;20.40;100374.00;;;;5054486;28;20482;-80
2021/06/28 02:18:27;;;;;;;15.17;13.90;;;19.50;7.30;20.40;100350.00;;;;5047253;28;20486;-79
2021/06/28 02:20:56;;;;;;;15.60;14.13;;;19.40;7.40;20.30;100334.00;;;;5043370;28;20861;-79
2021/06/28 02:23:30;;;;;;;15.33;14.13;;;19.40;7.30;20.40;100352.00;;;;5047637;28;20476;-79
2021/06/28 02:26:04;;;;;;;14.13;12.93;;;19.40;7.20;20.40;100365.00;;;;5046087;28;20551;-79
2021/06/28 02:28:36;;;;;;;14.00;12.80;;;19.50;7.20;20.30;100357.00;;;;5051533;28;21068;-79
2021/06/28 02:31:07;;;;;;;14.20;13.00;;;19.50;7.10;20.40;100367.00;;;;5057648;28;20452;-79
2021/06/28 02:33:39;;;;;;;13.70;12.37;;;19.50;6.80;20.40;100336.00;;;;5063305;28;20499;-79
2021/06/28 02:36:09;;;;;;;15.17;12.17;;;19.60;6.60;20.40;100358.00;;;;5033646;28;20490;-80
2021/06/28 02:38:39;;;;;;;13.63;12.30;;;19.60;6.40;20.40;100335.00;;;;5055233;28;20779;-80
2021/06/28 02:41:10;;;;;;;13.03;11.80;;;19.70;6.10;20.50;100352.00;;;;5044930;28;20467;-80
2021/06/28 02:43:39;;;;;;;12.93;11.73;;;19.80;5.50;20.50;100369.00;;;;5027852;28;20476;-79
2021/06/28 02:46:08;;;;;;;13.77;11.37;;;19.80;4.90;20.50;100357.00;;;;5045898;28;20452;-79
2021/06/28 02:48:37;;;;;;;13.60;12.50;;;19.80;5.30;20.50;100332.00;;;;5029271;28;20547;-79
2021/06/28 02:51:08;;;;;;;13.97;12.50;;;19.70;5.70;20.50;100351.00;;;;5029716;28;20444;-80
2021/06/28 02:53:37;;;;;;;13.47;12.27;;;19.70;6.20;20.50;100335.00;;;;5047958;28;20479;-80
2021/06/28 02:56:13;;;;;;;14.67;12.13;;;19.70;6.10;20.50;100325.00;;;;5037984;28;20456;-80
2021/06/28 02:58:45;;;;;;;13.60;12.40;;;19.70;6.40;20.50;100337.00;;;;5029793;28;20451;-81
2021/06/28 03:01:14;;;;;;;14.03;12.70;;;19.70;6.40;20.40;100331.00;;;;5046025;28;21035;-80
2021/06/28 03:03:43;;;;;;;13.13;12.00;;;19.70;6.90;20.50;100336.00;;;;5045798;28;20477;-80
2021/06/28 03:06:12;;;;;;;14.60;13.30;;;19.60;7.20;20.40;100352.00;;;;5046244;28;20452;-80
2021/06/28 03:08:41;;;;;;;15.70;12.93;;;19.50;7.30;20.40;100331.00;;;;5027964;28;20996;-80
2021/06/28 03:11:11;;;;;;;14.50;13.03;;;19.50;7.30;20.40;100321.00;;;;5044805;28;20462;-80
2021/06/28 03:13:40;;;;;;;14.33;12.73;;;19.50;7.40;20.40;100340.00;;;;5028481;28;20472;-79
2021/06/28 03:16:09;;;;;;;15.07;13.53;;;19.50;7.20;20.40;100336.00;;;;5047929;28;20487;-79
2021/06/28 03:18:38;;;;;;;14.10;12.80;;;19.50;7.10;20.40;100335.00;;;;5034835;28;21000;-80
2021/06/28 03:21:10;;;;;;;13.53;12.33;;;19.50;7.60;20.40;100339.00;;;;5045184;28;20575;-80
2021/06/28 03:23:43;;;;;;;15.47;14.07;;;19.40;7.30;20.40;100343.00;;;;5051110;28;20471;-80
2021/06/28 03:26:14;;;;;;;16.40;14.80;;;19.40;7.30;20.30;100343.00;;;;5034685;28;20551;-80
2021/06/28 03:28:43;;;;;;;16.77;15.27;;;19.40;7.10;20.20;100347.00;;;;5049429;28;20822;-79
2021/06/28 03:31:11;;;;;;;15.00;13.63;;;19.50;7.20;20.30;100325.00;;;;5028389;28;20514;-80
2021/06/28 03:33:40;;;;;;;15.03;13.17;;;19.50;7.10;20.30;100318.00;;;;5047043;28;20471;-80
2021/06/28 03:36:09;;;;;;;14.77;13.37;;;19.50;7.00;20.30;100355.00;;;;5029211;28;20490;-80
2021/06/28 03:38:38;;;;;;;17.53;14.17;;;19.50;6.90;20.30;100318.00;;;;5030254;28;20448;-80
2021/06/28 03:41:06;;;;;;;13.90;12.77;;;19.50;6.80;20.40;100306.00;;;;5046086;28;20462;-80
2021/06/28 03:43:36;;;;;;;13.27;12.17;;;19.50;6.70;20.30;100336.00;;;;5046980;28;20483;-79
2021/06/28 03:46:05;;;;;;;14.57;13.17;;;19.50;6.50;20.40;100344.00;;;;5047516;28;20487;-80
2021/06/28 03:48:34;;;;;;;14.90;13.40;;;19.60;6.50;20.40;100314.00;;;;5046797;28;20501;-79
2021/06/28 03:51:02;;;;;;;14.97;13.43;;;19.60;6.80;20.40;100337.00;;;;5047861;28;21388;-80
2021/06/28 03:53:31;;;;;;;14.40;13.10;;;19.60;6.70;20.50;100294.00;;;;5054485;28;20501;-79
2021/06/28 03:56:06;;;;;;;14.47;13.17;;;19.60;5.90;20.50;100341.00;;;;5040008;28;20494;-80
2021/06/28 03:58:36;;;;;;;13.70;12.50;;;19.60;5.80;20.50;100348.00;;;;5066925;28;20659;-80
2021/06/28 04:01:06;;;;;;;12.77;11.80;;;19.70;5.20;20.60;100318.00;;;;5053618;28;20450;-80
2021/06/28 04:03:36;;;;;;;12.80;11.70;;;19.80;4.50;20.60;100286.00;;;;5053256;28;20554;-78
2021/06/28 04:06:06;;;;;;;13.30;12.00;;;19.80;4.20;20.70;100323.00;;;;5058947;28;20459;-79
2021/06/28 04:08:36;;;;;;;13.80;12.43;;;19.90;3.80;20.70;100330.00;;;;5062833;28;20539;-81
2021/06/28 04:11:06;;;;;;;13.30;12.10;;;19.90;3.70;20.70;100317.00;;;;5040333;28;20467;-79
2021/06/28 04:13:36;;;;;;;13.40;12.30;;;19.90;3.70;20.70;100330.00;;;;5056961;28;20472;-79
2021/06/28 04:16:05;;;;;;;14.80;13.30;;;19.90;3.70;20.70;100317.00;;;;5048719;28;20460;-80
2021/06/28 04:18:34;;;;;;;13.27;12.17;;;19.90;3.70;20.70;100263.00;;;;5030961;28;20447;-80
2021/06/28 04:21:03;;;;;;;14.87;13.33;;;19.90;3.80;20.70;100321.00;;;;5037444;28;20452;-79
2021/06/28 04:23:31;;;;;;;13.83;12.53;;;19.90;3.90;20.70;100318.00;;;;5032524;28;20563;-79
2021/06/28 04:26:00;;;;;;;14.10;12.70;;;19.90;3.80;20.80;100317.00;;;;5046865;28;20513;-79
2021/06/28 04:28:29;;;;;;;14.80;13.37;;;19.90;4.40;20.90;100281.00;;;;5046117;28;20478;-79
2021/06/28 04:30:59;;;;;;;15.30;13.90;;;20.00;4.30;21.00;100324.00;;;;5045864;28;20455;-80
2021/06/28 04:33:28;;;;;;;15.53;13.80;;;20.10;4.20;21.00;100324.00;;;;5046732;28;20509;-80
2021/06/28 04:35:57;;;;;;;15.80;14.50;;;20.10;4.00;21.20;100316.00;;;;5053521;28;20591;-78
2021/06/28 04:38:26;;;;;;;19.40;16.67;;;20.20;3.40;21.20;100305.00;;;;5070990;28;20470;-79
2021/06/28 04:40:54;;;;;;;16.23;14.80;;;20.30;2.90;21.30;100305.00;;;;5062838;28;20479;-78
2021/06/28 04:43:23;;;;;;;15.77;14.10;;;20.50;1.80;21.40;100321.00;;;;5038834;28;20471;-78
2021/06/28 04:45:51;;;;;;;14.50;13.30;;;20.60;1.00;21.50;100253.00;;;;5047261;28;20456;-78
2021/06/28 04:48:21;;;;;;;14.93;13.70;;;20.80;1.00;21.50;100333.00;;;;5028222;28;20459;-79
2021/06/28 04:50:50;;;;;;;15.67;14.07;;;20.80;1.00;21.50;100285.00;;;;5049470;28;20487;-79
2021/06/28 04:53:18;;;;;;;15.87;14.47;;;20.80;1.00;21.60;100284.00;;;;5046122;28;20476;-78
2021/06/28 04:55:46;;;;;;;15.57;14.13;;;20.80;1.00;21.70;100293.00;;;;5027586;28;20685;-79
2021/06/28 04:58:15;;;;;;;13.50;12.40;;;20.90;1.00;21.80;100286.00;;;;5044250;28;20991;-78
2021/06/28 05:00:43;;;;;;;14.70;13.30;;;21.10;1.00;22.00;100297.00;;;;5026399;28;20460;-79
2021/06/28 05:03:12;;;;;;;13.67;12.50;;;21.20;1.00;22.10;100266.00;;;;5028060;28;20480;-78
2021/06/28 05:05:42;;;;;;;14.87;13.57;;;21.40;1.00;22.30;100284.00;;;;5030009;28;20476;-80
2021/06/28 05:08:10;;;;;;;14.17;12.97;;;21.50;1.00;22.60;100280.00;;;;5052159;28;20538;-79
2021/06/28 05:10:38;;;;;;;14.37;13.13;;;21.80;1.00;22.90;100315.00;;;;5033428;28;20448;-79
2021/06/28 05:13:07;;;;;;;14.10;12.90;;;22.00;1.00;23.10;100295.00;;;;5029925;28;20464;-80
2021/06/28 05:15:36;;;;;;;14.30;13.10;;;22.30;1.00;23.40;100291.00;;;;5049046;28;20482;-80
2021/06/28 05:18:05;;;;;;;13.90;12.70;;;22.50;1.00;23.60;100280.00;;;;5049246;28;20484;-80
2021/06/28 05:20:33;;;;;;;14.40;13.00;;;22.70;1.00;23.50;100273.00;;;;5051643;28;20567;-80
2021/06/28 05:23:04;;;;;;;13.00;11.70;;;22.70;1.00;23.70;100309.00;;;;5040458;28;21071;-80
2021/06/28 05:25:32;;;;;;;12.70;11.50;;;22.80;1.00;23.80;100303.00;;;;5053960;28;20581;-80
2021/06/28 05:28:01;;;;;;;14.07;12.73;;;22.90;1.00;23.50;100337.00;;;;5048667;28;20452;-80
2021/06/28 05:30:30;;;;;;;14.37;13.00;;;22.80;1.00;23.30;100339.00;;;;5044734;28;20531;-80
2021/06/28 05:32:58;;;;;;;14.67;13.47;;;22.60;1.00;23.20;100360.00;;;;5031482;28;20774;-80
2021/06/28 05:35:27;;;;;;;14.67;13.40;;;22.50;1.00;23.20;100340.00;;;;5049318;28;20476;-80
2021/06/28 05:37:55;;;;;;;16.53;14.30;;;22.50;1.00;23.50;100335.00;;;;5030408;28;20468;-80
2021/06/28 05:40:25;;;;;;;14.70;13.17;;;22.60;1.00;23.40;100322.00;;;;5031544;28;20848;-80
2021/06/28 05:42:53;;;;;;;14.93;13.63;;;22.60;1.00;23.60;100350.00;;;;5032591;28;20444;-80
2021/06/28 05:45:22;;;;;;;14.80;12.90;;;22.60;1.00;23.70;100355.00;;;;5028493;28;20456;-81
2021/06/28 05:47:50;;;;;;;14.53;13.17;;;22.70;1.00;23.90;100347.00;;;;5046810;28;20459;-81
2021/06/28 05:50:19;;;;;;;19.47;12.77;;;22.90;1.00;24.00;100343.00;;;;5030428;28;20566;-81
2021/06/28 05:52:49;;;;;;;14.60;13.20;;;23.00;1.00;24.30;100345.00;;;;5054515;28;20626;-80
2021/06/28 05:55:17;;;;;;;12.90;11.63;;;23.30;1.00;24.60;100348.00;;;;5032625;28;20491;-80
2021/06/28 05:57:47;;;;;;;13.53;12.13;;;23.60;1.00;24.90;100334.00;;;;5038229;28;20539;-78
2021/06/28 06:00:17;;;;;;;13.90;11.90;;;24.00;1.00;25.20;100318.00;;;;5030877;28;20452;-79
2021/06/28 06:02:46;;;;;;;12.40;11.30;;;24.30;1.00;25.10;100333.00;;;;5031537;28;20451;-79
2021/06/28 06:05:15;;;;;;;20.00;12.63;;;24.30;1.00;25.00;100374.00;;;;5031416;28;20785;-79
2021/06/28 06:07:43;;;;;;;12.73;11.37;;;24.20;1.00;25.10;100344.00;;;;5047937;28;20458;-80
2021/06/28 06:10:15;;;;;;;12.80;11.47;;;24.40;1.00;24.80;100374.00;;;;5047807;28;20621;-80
2021/06/28 06:12:50;;;;;;;15.80;12.50;;;24.10;1.00;24.80;100367.00;;;;5032787;28;20459;-80
2021/06/28 06:15:18;;;;;;;12.40;11.30;;;23.90;1.00;24.60;100357.00;;;;5052875;28;20510;-80
2021/06/28 06:17:47;;;;;;;13.60;11.67;;;23.80;1.00;24.50;100366.00;;;;5061528;28;20551;-79
2021/06/28 06:20:19;;;;;;;12.60;11.30;;;23.60;1.00;24.60;100365.00;;;;5054507;28;20508;-79
2021/06/28 06:22:48;;;;;;;12.53;11.43;;;23.70;1.00;24.70;100368.00;;;;5049106;28;21451;-80
2021/06/28 06:25:16;;;;;;;12.60;11.33;;;23.80;1.00;24.70;100362.00;;;;5029517;28;20535;-81
2021/06/28 06:27:45;;;;;;;12.43;11.27;;;23.90;1.00;24.40;100356.00;;;;5041154;28;20851;-80
2021/06/28 06:30:16;;;;;;;12.20;11.10;;;23.70;1.00;24.70;100343.00;;;;5052413;28;20448;-79
2021/06/28 06:32:47;;;;;;;12.77;10.43;;;23.80;1.00;24.90;100356.00;;;;5050566;28;20456;-81
2021/06/28 06:35:16;;;;;;;12.83;11.53;;;24.00;1.00;25.00;100352.00;;;;5051709;28;20460;-80
2021/06/28 06:37:45;;;;;;;11.47;10.57;;;24.20;1.00;25.30;100352.00;;;;5034255;28;21180;-81
2021/06/28 06:40:14;;;;;;;10.77;9.77;;;24.40;1.00;25.50;100352.00;;;;5052385;28;20451;-81
2021/06/28 06:42:44;;;;;;;10.83;9.83;;;24.70;1.00;25.70;100383.00;;;;5046776;28;20529;-82
2021/06/28 06:45:15;;;;;;;10.90;9.90;;;24.90;1.00;25.90;100322.00;;;;5050082;28;20451;-84
2021/06/28 06:47:44;;;;;;;10.87;8.73;;;25.20;1.00;26.00;100394.00;;;;5050916;28;20539;-81
2021/06/28 06:50:15;;;;;;;10.93;9.93;;;25.30;1.00;25.80;100374.00;;;;5053646;28;20488;-82
2021/06/28 06:52:46;;;;;;;9.70;8.67;;;25.20;1.00;26.10;100373.00;;;;5038459;28;20504;-80
2021/06/28 06:55:16;;;;;;;10.03;9.13;;;25.20;1.00;26.30;100371.00;;;;5056602;28;20458;-79
2021/06/28 06:57:45;;;;;;;9.33;8.43;;;25.40;1.00;26.50;100301.00;;;;5037766;28;20507;-83
2021/06/28 07:00:19;;;;;;;11.13;9.90;;;25.50;1.00;26.50;100380.00;;;;5040336;28;20528;-80
2021/06/28 07:02:48;;;;;;;10.37;9.37;;;25.50;1.00;26.60;100350.00;;;;5046333;28;20469;-80
2021/06/28 07:05:19;;;;;;;10.13;9.33;;;25.40;1.00;26.60;100353.00;;;;5054157;28;20460;-80
2021/06/28 07:07:48;;;;;;;9.90;9.00;;;25.40;1.00;26.70;100378.00;;;;5059934;28;20456;-82
2021/06/28 07:10:18;;;;;;;10.00;9.00;;;25.40;1.00;26.70;100375.00;;;;5061179;28;20881;-79
2021/06/28 07:12:48;;;;;;;11.77;10.43;;;25.60;1.00;26.70;100384.00;;;;5042873;28;20490;-77
2021/06/28 07:15:21;;;;;;;9.93;9.03;;;25.60;1.00;26.70;100376.00;;;;5062382;28;20466;-79
2021/06/28 07:17:51;;;;;;;9.33;8.53;;;25.40;1.00;26.70;100396.00;;;;5047624;28;20468;-79
2021/06/28 07:20:22;;;;;;;10.53;9.63;;;25.40;1.00;26.80;100392.00;;;;5041967;28;20549;-80
2021/06/28 07:22:52;;;;;;;13.33;11.93;;;25.70;1.00;27.20;100387.00;;;;5044178;28;20452;-81
2021/06/28 07:25:23;;;;;;;13.57;12.27;;;26.00;1.00;27.70;100362.00;;;;5059409;28;20456;-81
2021/06/28 07:27:52;;;;;;;11.50;10.50;;;26.50;1.00;27.60;100399.00;;;;5062260;28;20452;-80
2021/06/28 07:30:24;;;;;;;10.97;9.97;;;26.50;1.00;27.50;100364.00;;;;5051711;28;20531;-80
2021/06/28 07:32:53;;;;;;;10.23;9.13;;;26.40;1.00;27.30;100389.00;;;;5030970;28;20506;-81
2021/06/28 07:35:22;;;;;;;8.97;7.87;;;26.30;1.00;27.20;100398.00;;;;5050052;28;20464;-80
2021/06/28 07:37:54;;;;;;;9.07;7.90;;;26.30;1.00;26.70;100418.00;;;;5051927;28;20499;-79
2021/06/28 07:40:23;;;;;;;9.40;8.50;;;25.90;1.00;27.00;100405.00;;;;5053179;28;20612;-81
2021/06/28 07:42:52;;;;;;;8.27;7.47;;;26.00;1.00;26.90;100407.00;;;;5034795;28;20521;-79
2021/06/28 07:45:23;;;;;;;10.40;8.70;;;26.00;1.00;26.90;100361.00;;;;5033258;28;20460;-81
2021/06/28 07:47:52;;;;;;;9.03;8.23;;;26.00;1.00;26.90;100422.00;;;;5033869;28;21015;-80
2021/06/28 07:50:21;;;;;;;10.27;9.17;;;26.10;1.00;26.90;100413.00;;;;5036376;28;20447;-82
2021/06/28 07:52:49;;;;;;;10.27;8.03;;;26.10;1.00;26.90;100416.00;;;;5053627;28;20792;-81
2021/06/28 07:55:18;;;;;;;8.83;7.17;;;26.20;1.00;26.50;100417.00;;;;5055542;28;20452;-82
2021/06/28 07:57:47;;;;;;;7.30;6.70;;;26.00;1.00;26.60;100424.00;;;;5054039;28;20484;-80
2021/06/28 08:00:20;;;;;;;7.60;6.80;;;25.90;1.00;26.70;100414.00;;;;5043118;28;20519;-80
2021/06/28 08:02:50;;;;;;;9.03;7.23;;;26.10;1.00;26.80;100369.00;;;;5057387;28;20455;-79
2021/06/28 08:05:19;;;;;;;10.40;7.70;;;26.10;1.00;26.90;100311.00;;;;5039001;28;20483;-79
2021/06/28 08:07:47;;;;;;;6.47;5.87;;;26.30;1.00;26.90;100408.00;;;;5038870;28;20520;-80
2021/06/28 08:10:17;;;;;;;7.53;6.60;;;26.40;1.00;26.90;100392.00;;;;5048752;28;20534;-79
2021/06/28 08:12:47;;;;;;;8.00;7.30;;;26.50;1.00;27.10;100407.00;;;;5039246;28;20524;-80
2021/06/28 08:15:19;;;;;;;7.40;6.70;;;26.50;1.00;27.10;100419.00;;;;5054692;28;20555;-79
2021/06/28 08:17:50;;;;;;;8.30;6.90;;;26.60;1.00;27.20;100427.00;;;;5038699;28;20471;-80
2021/06/28 08:20:21;;;;;;;6.60;6.00;;;26.60;1.00;27.20;100428.00;;;;5044066;28;20482;-79
2021/06/28 08:22:50;;;;;;;6.33;5.83;;;26.80;1.00;27.20;100406.00;;;;5059308;28;20642;-78
2021/06/28 08:25:23;;;;;;;6.40;5.80;;;26.90;1.00;27.30;100415.00;;;;5038923;28;20464;-81
2021/06/28 08:27:52;;;;;;;5.97;5.47;;;26.90;1.00;27.40;100400.00;;;;5051783;28;20467;-80
2021/06/28 08:30:21;;;;;;;7.50;6.70;;;26.90;1.00;27.40;100405.00;;;;5049015;28;20452;-79
2021/06/28 08:32:51;;;;;;;8.23;7.40;;;27.00;1.00;27.50;100408.00;;;;5039717;28;20992;-79
2021/06/28 08:35:19;;;;;;;7.10;6.50;;;27.00;1.00;27.50;100343.00;;;;5052867;28;20466;-79
2021/06/28 08:37:48;;;;;;;7.67;5.70;;;27.10;1.00;27.60;100399.00;;;;5054085;28;20548;-78
2021/06/28 08:40:16;;;;;;;6.43;5.80;;;27.20;1.00;27.60;100396.00;;;;5032119;28;20456;-81
2021/06/28 08:42:45;;;;;;;7.93;5.53;;;27.20;1.00;27.70;100394.00;;;;5035040;28;20531;-79
2021/06/28 08:45:15;;;;;;;7.10;6.40;;;27.30;1.00;27.70;100362.00;;;;5052974;28;20618;-81
2021/06/28 08:47:45;;;;;;;6.67;5.67;;;27.30;1.00;27.50;100398.00;;;;5042252;28;20468;-80
2021/06/28 08:50:15;;;;;;;7.07;6.00;;;27.20;1.00;27.80;100396.00;;;;5044865;28;20487;-78
2021/06/28 08:52:45;;;;;;;7.03;6.43;;;27.30;1.00;27.80;100395.00;;;;5057193;28;21019;-80
2021/06/28 08:55:14;;;;;;;6.90;5.80;;;27.30;1.00;27.80;100403.00;;;;5053516;28;20470;-79
2021/06/28 08:57:42;;;;;;;6.97;6.30;;;27.40;1.00;27.90;100400.00;;;;5052810;28;20476;-79
2021/06/28 09:00:15;;;;;;;7.33;5.73;;;27.50;1.00;28.10;100402.00;;;;5039344;28;20460;-79
2021/06/28 09:02:45;;;;;;;7.67;6.87;;;27.50;1.00;28.10;100401.00;;;;5041503;28;20456;-78
2021/06/28 09:05:15;;;;;;;6.63;5.50;;;27.60;1.00;28.60;100396.00;;;;5059625;28;20484;-80
2021/06/28 09:07:43;;;;;;;7.60;6.13;;;28.00;1.00;28.60;100398.00;;;;5052645;28;20483;-80
2021/06/28 09:10:34;;;;;;;6.33;5.77;;;28.00;1.00;28.70;100386.00;;;;5057877;28;20467;-79
2021/06/28 09:13:05;;;;;;;8.80;6.20;;;28.20;1.00;29.00;100383.00;;;;5059092;28;20483;-79
2021/06/28 09:15:37;;;;;;;7.03;6.23;;;28.60;1.00;29.10;100381.00;;;;5037997;28;20460;-80
2021/06/28 09:18:22;;;;;;;6.43;5.57;;;28.80;1.00;29.20;100384.00;;;;5054121;28;20482;-79
2021/06/28 09:21:05;;;;;;;6.23;5.63;;;29.00;1.00;29.10;100381.00;;;;5057433;28;20510;-79
2021/06/28 09:23:34;;;;;;;11.07;6.30;;;28.90;1.00;29.10;100359.00;;;;5054239;28;20556;-79
2021/06/28 09:26:10;;;;;;;6.23;5.70;;;28.90;1.00;29.10;100368.00;;;;5041132;28;20452;-77
2021/06/28 09:28:43;;;;;;;6.23;5.40;;;28.90;1.00;29.10;100400.00;;;;5036280;28;20472;-78
2021/06/28 09:31:18;;;;;;;9.67;6.00;;;28.90;1.00;28.90;100370.00;;;;5057856;28;20928;-78
2021/06/28 09:34:09;;;;;;;5.70;5.20;;;28.80;1.00;28.90;100407.00;;;;5054396;28;20459;-78
2021/06/28 09:36:53;;;;;;;6.67;5.97;;;28.80;1.00;29.00;100401.00;;;;5078632;28;20508;-78
2021/06/28 09:39:29;;;;;;;7.00;5.67;;;28.90;1.00;29.10;100398.00;;;;5059762;28;20480;-80
2021/06/28 09:42:10;;;;;;;6.63;5.40;;;28.90;1.00;29.30;100409.00;;;;5056851;28;20451;-79
2021/06/28 09:44:42;;;;;;;7.87;5.23;;;29.00;1.00;29.40;100394.00;;;;5037701;28;20468;-78
2021/06/28 09:47:13;;;;;;;6.73;5.80;;;29.20;1.00;29.40;100405.00;;;;5041683;28;20452;-79
2021/06/28 09:49:59;;;;;;;6.00;5.40;;;29.10;1.00;29.30;100410.00;;;;5052043;28;20449;-79
2021/06/28 09:52:35;;;;;;;6.43;5.83;;;28.90;1.00;29.10;100414.00;;;;5035810;28;20447;-79
2021/06/28 09:55:19;;;;;;;5.60;5.17;;;28.90;1.00;29.20;100423.00;;;;5033057;28;20471;-77
2021/06/28 09:58:11;;;;;;;6.30;5.20;;;28.70;1.00;29.10;100414.00;;;;5023576;28;20479;-79
2021/06/28 10:00:43;;;;;;;6.40;5.03;;;28.40;1.00;29.10;100395.00;;;;5037523;28;20471;-80
2021/06/28 10:03:33;;;;;;;5.60;5.00;;;28.40;1.00;29.10;100407.00;;;;5035254;28;20467;-80
2021/06/28 10:06:11;;;;;;;5.70;5.20;;;28.50;1.00;29.30;100419.00;;;;5036189;28;20523;-81
2021/06/28 10:08:44;;;;;;;5.07;4.57;;;28.50;1.00;29.60;100383.00;;;;5052179;28;20559;-80
2021/06/28 10:11:16;;;;;;;5.20;4.80;;;28.90;1.00;30.10;100392.00;;;;5035974;28;20490;-79
2021/06/28 10:13:52;;;;;;;5.30;4.80;;;29.30;1.00;30.20;100394.00;;;;5035823;28;20891;-79
2021/06/28 10:16:22;;;;;;;6.40;5.60;;;29.50;1.00;30.20;100402.00;;;;5037762;28;20452;-79
2021/06/28 10:18:53;;;;;;;6.77;6.17;;;29.50;1.00;30.30;100424.00;;;;5042161;28;20493;-80
2021/06/28 10:21:22;;;;;;;6.17;5.67;;;29.60;1.00;30.60;100407.00;;;;5049324;28;20495;-82
2021/06/28 10:23:52;;;;;;;6.17;5.13;;;29.60;1.00;30.80;100404.00;;;;5051484;28;20478;-80
2021/06/28 10:26:21;;;;;;;5.90;5.40;;;29.60;1.00;31.00;100381.00;;;;5050985;28;20471;-80
2021/06/28 10:28:50;;;;;;;6.13;5.53;;;29.80;1.00;31.20;100391.00;;;;5034323;28;20520;-80
2021/06/28 10:31:19;;;;;;;5.43;4.93;;;30.00;1.00;31.60;100402.00;;;;5052030;28;20456;-80
2021/06/28 10:33:54;;;;;;;6.50;4.83;;;30.30;1.00;31.80;100401.00;;;;5052079;28;20459;-79
2021/06/28 10:36:29;;;;;;;5.30;4.90;;;30.70;1.00;32.00;100360.00;;;;5033726;28;20564;-79
2021/06/28 10:38:59;;;;;;;6.50;4.77;;;30.90;1.00;31.90;100375.00;;;;5049403;28;21034;-78
2021/06/28 10:41:39;;;;;;;5.20;4.70;;;31.10;1.00;32.10;100388.00;;;;5030571;28;20506;-80
2021/06/28 10:44:14;;;;;;;4.60;4.20;;;31.40;1.00;32.00;100402.00;;;;5053863;28;20488;-83
2021/06/28 10:46:46;;;;;;;4.70;4.30;;;31.60;1.00;31.80;100377.00;;;;5049050;28;20457;-79
2021/06/28 10:49:15;;;;;;;4.60;4.20;;;31.30;1.00;31.60;100376.00;;;;5052137;28;20456;-79
2021/06/28 10:51:47;;;;;;;4.77;4.47;;;30.80;1.00;31.40;100377.00;;;;5050101;28;20939;-79
2021/06/28 10:54:18;;;;;;;4.50;3.57;;;30.60;1.00;31.70;100384.00;;;;5052493;28;20463;-80
2021/06/28 10:56:57;;;;;;;4.70;4.30;;;30.90;1.00;31.50;100378.00;;;;5034137;28;20447;-80
2021/06/28 10:59:45;;;;;;;4.87;4.47;;;30.60;1.00;31.40;100376.00;;;;5050642;28;20972;-79